createdAt,value
2018-12-27T00:00:54.793Z,0.00
2018-12-27T00:01:54.816Z,0.00
2018-12-27T00:02:55.198Z,0.00
2018-12-27T00:03:54.777Z,0.00
2018-12-27T00:04:54.772Z,0.00
2018-12-27T00:05:54.766Z,0.00
2018-12-27T00:06:54.766Z,0.00
2018-12-27T00:07:54.785Z,0.00
2018-12-27T00:08:54.760Z,0.00
2018-12-27T00:09:54.751Z,0.00
2018-12-27T00:10:54.749Z,0.00
2018-12-27T00:11:54.739Z,0.00
2018-12-27T00:12:54.766Z,0.00
2018-12-27T00:13:54.741Z,0.00
2018-12-27T00:14:54.728Z,0.00
2018-12-27T00:15:54.723Z,0.00
2018-12-27T00:16:54.716Z,0.00
2018-12-27T00:17:54.735Z,0.00
2018-12-27T00:18:54.708Z,0.00
2018-12-27T00:19:54.703Z,0.00
2018-12-27T00:20:54.696Z,0.00
2018-12-27T00:21:54.688Z,0.00
2018-12-27T00:22:54.714Z,0.00
2018-12-27T00:23:54.683Z,0.00
2018-12-27T00:24:54.681Z,0.00
2018-12-27T00:25:54.674Z,0.00
2018-12-27T00:26:54.667Z,0.00
2018-12-27T00:27:54.696Z,0.00
2018-12-27T00:28:54.655Z,0.00
2018-12-27T00:29:54.656Z,0.00
2018-12-27T00:30:54.653Z,0.00
2018-12-27T00:31:54.647Z,0.00
2018-12-27T00:32:54.669Z,0.00
2018-12-27T00:33:54.639Z,0.00
2018-12-27T00:34:54.637Z,0.00
2018-12-27T00:35:54.623Z,0.00
2018-12-27T00:36:54.629Z,0.00
2018-12-27T00:37:54.651Z,0.00
2018-12-27T00:38:54.615Z,0.00
2018-12-27T00:39:54.607Z,0.00
2018-12-27T00:40:54.603Z,0.00
2018-12-27T00:41:54.599Z,0.00
2018-12-27T00:42:54.623Z,0.00
2018-12-27T00:43:54.597Z,0.00
2018-12-27T00:44:54.586Z,0.00
2018-12-27T00:45:54.583Z,0.00
2018-12-27T00:46:54.575Z,0.00
2018-12-27T00:47:54.596Z,0.00
2018-12-27T00:48:54.567Z,0.00
2018-12-27T00:49:54.558Z,0.00
2018-12-27T00:50:54.560Z,0.00
2018-12-27T00:51:54.550Z,0.00
2018-12-27T00:52:54.574Z,0.00
2018-12-27T00:53:54.544Z,0.00
2018-12-27T00:54:54.538Z,0.00
2018-12-27T00:55:54.530Z,0.00
2018-12-27T00:56:54.526Z,0.00
2018-12-27T00:57:54.555Z,0.00
2018-12-27T00:58:54.547Z,0.00
2018-12-27T00:59:54.524Z,0.00
2018-12-27T01:00:54.515Z,0.00
2018-12-27T01:01:54.504Z,0.00
2018-12-27T01:02:54.501Z,0.00
2018-12-27T01:03:54.526Z,0.00
2018-12-27T01:04:54.491Z,0.00
2018-12-27T01:05:54.484Z,0.00
2018-12-27T01:06:54.484Z,0.00
2018-12-27T01:07:54.480Z,0.00
2018-12-27T01:08:54.499Z,0.00
2018-12-27T01:09:54.466Z,0.00
2018-12-27T01:10:54.463Z,0.00
2018-12-27T01:11:54.458Z,0.00
2018-12-27T01:12:54.452Z,0.00
2018-12-27T01:13:54.482Z,0.00
2018-12-27T01:14:54.440Z,0.00
2018-12-27T01:15:54.437Z,0.00
2018-12-27T01:16:54.434Z,0.00
2018-12-27T01:17:54.516Z,0.00
2018-12-27T01:18:54.458Z,0.00
2018-12-27T01:19:54.421Z,0.00
2018-12-27T01:20:54.413Z,0.00
2018-12-27T01:21:54.410Z,0.00
2018-12-27T01:22:54.406Z,0.00
2018-12-27T01:23:54.429Z,0.00
2018-12-27T01:24:54.397Z,0.00
2018-12-27T01:25:54.395Z,0.00
2018-12-27T01:26:54.391Z,0.00
2018-12-27T01:27:54.381Z,0.00
2018-12-27T01:28:54.404Z,0.00
2018-12-27T01:29:54.374Z,0.00
2018-12-27T01:30:54.368Z,0.00
2018-12-27T01:31:54.360Z,0.00
2018-12-27T01:32:54.356Z,0.00
2018-12-27T01:33:54.378Z,0.00
2018-12-27T01:34:54.348Z,0.00
2018-12-27T01:35:54.345Z,0.00
2018-12-27T01:36:54.341Z,0.00
2018-12-27T01:37:54.336Z,0.00
2018-12-27T01:38:54.363Z,0.00
2018-12-27T01:39:54.327Z,0.00
2018-12-27T01:40:54.317Z,0.00
2018-12-27T01:41:54.315Z,0.00
2018-12-27T01:42:54.312Z,0.00
2018-12-27T01:43:54.334Z,0.00
2018-12-27T01:44:54.298Z,0.00
2018-12-27T01:45:54.296Z,0.00
2018-12-27T01:46:54.291Z,0.00
2018-12-27T01:47:54.284Z,0.00
2018-12-27T01:48:54.315Z,0.00
2018-12-27T01:49:54.281Z,0.00
2018-12-27T01:50:54.270Z,0.00
2018-12-27T01:51:54.269Z,0.00
2018-12-27T01:52:54.265Z,0.00
2018-12-27T01:53:54.292Z,0.00
2018-12-27T01:54:54.251Z,0.00
2018-12-27T01:55:54.249Z,0.00
2018-12-27T01:56:54.241Z,0.00
2018-12-27T01:57:54.239Z,0.00
2018-12-27T01:58:54.268Z,0.00
2018-12-27T01:59:54.232Z,0.00
2018-12-27T02:00:54.227Z,0.00
2018-12-27T02:01:54.255Z,0.00
2018-12-27T02:02:54.225Z,0.00
2018-12-27T02:03:54.208Z,0.00
2018-12-27T02:04:54.237Z,0.00
2018-12-27T02:05:54.203Z,0.00
2018-12-27T02:06:54.199Z,0.00
2018-12-27T02:07:54.194Z,0.00
2018-12-27T02:08:54.190Z,0.00
2018-12-27T02:09:54.217Z,0.00
2018-12-27T02:10:54.182Z,0.00
2018-12-27T02:11:54.176Z,0.00
2018-12-27T02:12:54.171Z,0.00
2018-12-27T02:13:54.167Z,0.00
2018-12-27T02:14:54.191Z,0.00
2018-12-27T02:15:54.156Z,0.00
2018-12-27T02:16:54.151Z,0.00
2018-12-27T02:17:54.150Z,0.00
2018-12-27T02:18:54.149Z,0.00
2018-12-27T02:19:54.166Z,0.00
2018-12-27T02:20:54.134Z,0.00
2018-12-27T02:21:54.130Z,0.00
2018-12-27T02:22:54.130Z,0.00
2018-12-27T02:23:54.124Z,0.00
2018-12-27T02:24:54.141Z,0.00
2018-12-27T02:25:54.114Z,0.00
2018-12-27T02:26:54.109Z,0.00
2018-12-27T02:27:54.101Z,0.00
2018-12-27T02:28:54.098Z,0.00
2018-12-27T02:29:54.119Z,0.00
2018-12-27T02:30:54.089Z,0.00
2018-12-27T02:31:54.086Z,0.00
2018-12-27T02:32:54.097Z,0.00
2018-12-27T02:33:54.077Z,0.00
2018-12-27T02:34:54.099Z,0.00
2018-12-27T02:35:54.071Z,0.00
2018-12-27T02:36:54.062Z,0.00
2018-12-27T02:37:54.062Z,0.00
2018-12-27T02:38:54.053Z,0.00
2018-12-27T02:39:54.088Z,0.00
2018-12-27T02:40:54.049Z,0.00
2018-12-27T02:41:54.039Z,0.00
2018-12-27T02:42:54.036Z,0.00
2018-12-27T02:43:54.037Z,0.00
2018-12-27T02:44:54.056Z,0.00
2018-12-27T02:45:54.021Z,0.00
2018-12-27T02:46:54.019Z,0.00
2018-12-27T02:47:54.013Z,0.00
2018-12-27T02:48:54.008Z,0.00
2018-12-27T02:49:54.031Z,0.00
2018-12-27T02:50:53.998Z,0.00
2018-12-27T02:51:54.057Z,0.00
2018-12-27T02:52:55.114Z,0.00
2018-12-27T02:53:53.986Z,0.00
2018-12-27T02:54:54.012Z,0.00
2018-12-27T02:55:53.977Z,0.00
2018-12-27T02:56:53.973Z,0.00
2018-12-27T02:57:53.969Z,0.00
2018-12-27T02:58:53.966Z,0.00
2018-12-27T02:59:53.986Z,0.00
2018-12-27T03:00:53.954Z,0.00
2018-12-27T03:01:53.948Z,0.00
2018-12-27T03:02:53.947Z,0.00
2018-12-27T03:03:53.941Z,0.00
2018-12-27T03:04:56.660Z,0.00
2018-12-27T03:05:54.074Z,0.00
2018-12-27T03:06:53.925Z,0.00
2018-12-27T03:07:53.926Z,0.00
2018-12-27T03:08:53.917Z,0.00
2018-12-27T03:09:53.937Z,0.00
2018-12-27T03:10:53.914Z,0.00
2018-12-27T03:11:53.902Z,0.00
2018-12-27T03:12:53.897Z,0.00
2018-12-27T03:13:53.893Z,0.00
2018-12-27T03:14:53.916Z,0.00
2018-12-27T03:15:53.886Z,0.00
2018-12-27T03:16:53.883Z,0.00
2018-12-27T03:17:53.872Z,0.00
2018-12-27T03:18:53.873Z,0.00
2018-12-27T03:19:53.897Z,0.00
2018-12-27T03:20:53.867Z,0.00
2018-12-27T03:21:53.858Z,0.00
2018-12-27T03:22:53.853Z,0.00
2018-12-27T03:23:53.851Z,0.00
2018-12-27T03:24:53.884Z,0.00
2018-12-27T03:25:53.889Z,0.00
2018-12-27T03:26:58.163Z,0.00
2018-12-27T03:27:53.912Z,0.00
2018-12-27T03:28:53.824Z,0.00
2018-12-27T03:29:54.332Z,0.00
2018-12-27T03:30:53.818Z,0.00
2018-12-27T03:31:53.811Z,0.00
2018-12-27T03:32:53.806Z,0.00
2018-12-27T03:33:53.806Z,0.00
2018-12-27T03:34:53.830Z,0.00
2018-12-27T03:35:53.846Z,0.00
2018-12-27T03:36:53.869Z,0.00
2018-12-27T03:37:53.786Z,0.00
2018-12-27T03:38:53.780Z,0.00
2018-12-27T03:39:53.778Z,0.00
2018-12-27T03:40:54.340Z,0.00
2018-12-27T03:41:53.767Z,0.00
2018-12-27T03:42:54.299Z,0.00
2018-12-27T03:43:53.756Z,0.00
2018-12-27T03:44:53.755Z,0.00
2018-12-27T03:45:53.779Z,0.00
2018-12-27T03:46:53.747Z,0.00
2018-12-27T03:47:53.741Z,0.00
2018-12-27T03:48:53.736Z,0.00
2018-12-27T03:49:53.733Z,0.00
2018-12-27T03:50:53.753Z,0.00
2018-12-27T03:51:53.720Z,0.00
2018-12-27T03:52:53.716Z,0.00
2018-12-27T03:53:53.712Z,0.00
2018-12-27T03:54:53.709Z,0.00
2018-12-27T03:55:53.735Z,0.00
2018-12-27T03:56:53.700Z,0.00
2018-12-27T03:57:53.806Z,0.00
2018-12-27T03:58:53.690Z,0.00
2018-12-27T03:59:53.689Z,0.00
2018-12-27T04:00:53.709Z,0.00
2018-12-27T04:01:53.680Z,0.00
2018-12-27T04:02:53.675Z,0.00
2018-12-27T04:04:01.025Z,0.00
2018-12-27T04:04:53.664Z,0.00
2018-12-27T04:05:53.683Z,0.00
2018-12-27T04:06:53.661Z,0.00
2018-12-27T04:07:53.653Z,0.00
2018-12-27T04:08:53.648Z,0.00
2018-12-27T04:09:53.644Z,0.00
2018-12-27T04:10:53.660Z,0.00
2018-12-27T04:11:53.631Z,0.00
2018-12-27T04:12:53.732Z,5.88
2018-12-27T04:13:53.624Z,13.47
2018-12-27T04:14:53.623Z,17.83
2018-12-27T04:15:53.643Z,21.73
2018-12-27T04:16:53.611Z,21.35
2018-12-27T04:17:53.639Z,25.52
2018-12-27T04:18:53.606Z,28.66
2018-12-27T04:19:53.599Z,33.30
2018-12-27T04:20:53.621Z,43.27
2018-12-27T04:21:53.590Z,46.49
2018-12-27T04:22:53.622Z,46.78
2018-12-27T04:23:53.601Z,47.25
2018-12-27T04:24:53.571Z,47.73
2018-12-27T04:25:53.599Z,48.39
2018-12-27T04:26:53.567Z,44.88
2018-12-27T04:27:53.563Z,47.63
2018-12-27T04:28:53.559Z,47.34
2018-12-27T04:29:53.551Z,46.47
2018-12-27T04:30:53.580Z,39.64
2018-12-27T04:31:53.564Z,28.53
2018-12-27T04:32:53.560Z,17.16
2018-12-27T04:33:53.538Z,7.29
2018-12-27T04:34:53.557Z,1.80
2018-12-27T04:35:53.591Z,0.00
2018-12-27T04:36:53.609Z,0.00
2018-12-27T04:37:53.522Z,0.00
2018-12-27T04:38:53.518Z,0.00
2018-12-27T04:39:53.514Z,0.00
2018-12-27T04:40:53.506Z,0.00
2018-12-27T04:41:53.528Z,0.00
2018-12-27T04:42:53.498Z,0.00
2018-12-27T04:43:53.495Z,0.00
2018-12-27T04:44:53.490Z,0.00
2018-12-27T04:45:53.526Z,0.00
2018-12-27T04:46:53.506Z,0.00
2018-12-27T04:47:53.484Z,0.00
2018-12-27T04:48:53.467Z,0.00
2018-12-27T04:49:53.466Z,0.00
2018-12-27T04:50:53.462Z,0.00
2018-12-27T04:51:53.483Z,0.00
2018-12-27T04:52:53.456Z,0.00
2018-12-27T04:53:53.447Z,0.00
2018-12-27T04:54:53.443Z,0.00
2018-12-27T04:55:53.434Z,0.00
2018-12-27T04:56:53.463Z,0.00
2018-12-27T04:57:53.513Z,0.00
2018-12-27T04:58:53.425Z,0.00
2018-12-27T04:59:53.430Z,0.00
2018-12-27T05:00:53.413Z,0.00
2018-12-27T05:01:53.440Z,0.00
2018-12-27T05:02:53.401Z,0.00
2018-12-27T05:03:53.397Z,0.00
2018-12-27T05:04:53.391Z,0.00
2018-12-27T05:05:53.394Z,0.00
2018-12-27T05:06:53.415Z,0.00
2018-12-27T05:07:53.383Z,0.00
2018-12-27T05:08:53.376Z,0.00
2018-12-27T05:09:53.367Z,0.00
2018-12-27T05:10:53.361Z,0.00
2018-12-27T05:11:53.385Z,0.00
2018-12-27T05:12:53.354Z,0.00
2018-12-27T05:13:53.346Z,0.00
2018-12-27T05:14:53.341Z,0.00
2018-12-27T05:15:53.335Z,0.00
2018-12-27T05:16:53.362Z,0.00
2018-12-27T05:17:53.426Z,0.00
2018-12-27T05:18:53.325Z,0.00
2018-12-27T05:19:53.316Z,0.00
2018-12-27T05:20:53.312Z,0.00
2018-12-27T05:21:53.338Z,0.00
2018-12-27T05:22:53.306Z,0.00
2018-12-27T05:23:53.296Z,0.00
2018-12-27T05:24:53.293Z,0.00
2018-12-27T05:25:53.290Z,0.00
2018-12-27T05:26:53.305Z,0.00
2018-12-27T05:27:53.278Z,0.00
2018-12-27T05:28:53.277Z,0.00
2018-12-27T05:29:53.275Z,0.00
2018-12-27T05:30:53.336Z,0.00
2018-12-27T05:31:53.288Z,0.00
2018-12-27T05:32:53.285Z,0.00
2018-12-27T05:33:53.304Z,0.00
2018-12-27T05:34:53.251Z,0.00
2018-12-27T05:35:53.239Z,0.00
2018-12-27T05:36:53.260Z,0.00
2018-12-27T05:37:53.228Z,0.00
2018-12-27T05:38:53.225Z,0.00
2018-12-27T05:39:53.221Z,0.00
2018-12-27T05:40:53.216Z,0.00
2018-12-27T05:41:53.241Z,0.00
2018-12-27T05:42:54.143Z,0.00
2018-12-27T05:43:53.204Z,0.00
2018-12-27T05:44:53.198Z,0.00
2018-12-27T05:45:53.193Z,0.00
2018-12-27T05:46:53.219Z,0.00
2018-12-27T05:47:53.183Z,0.00
2018-12-27T05:48:53.180Z,0.00
2018-12-27T05:49:53.172Z,0.00
2018-12-27T05:50:53.173Z,0.00
2018-12-27T05:51:53.192Z,0.00
2018-12-27T05:52:53.167Z,0.00
2018-12-27T05:53:53.156Z,0.00
2018-12-27T05:54:53.153Z,0.00
2018-12-27T05:55:53.151Z,0.00
2018-12-27T05:56:53.167Z,0.00
2018-12-27T05:57:53.136Z,0.00
2018-12-27T05:58:53.147Z,0.00
2018-12-27T05:59:53.131Z,0.00
2018-12-27T06:00:53.127Z,0.00
2018-12-27T06:01:53.146Z,0.00
2018-12-27T06:02:53.115Z,0.00
2018-12-27T06:03:53.110Z,0.00
2018-12-27T06:04:53.107Z,0.00
2018-12-27T06:05:53.103Z,0.00
2018-12-27T06:06:53.120Z,0.00
2018-12-27T06:07:53.090Z,0.00
2018-12-27T06:08:53.087Z,2.27
2018-12-27T06:09:53.083Z,3.70
2018-12-27T06:10:53.080Z,7.68
2018-12-27T06:11:53.098Z,10.71
2018-12-27T06:12:53.071Z,10.33
2018-12-27T06:13:53.065Z,11.76
2018-12-27T06:14:53.066Z,11.48
2018-12-27T06:15:53.057Z,11.57
2018-12-27T06:16:53.079Z,13.46
2018-12-27T06:17:53.046Z,16.98
2018-12-27T06:18:53.045Z,19.73
2018-12-27T06:19:53.038Z,20.31
2018-12-27T06:20:53.034Z,18.88
2018-12-27T06:21:53.058Z,21.24
2018-12-27T06:22:53.027Z,22.58
2018-12-27T06:23:53.020Z,20.40
2018-12-27T06:24:53.018Z,20.97
2018-12-27T06:25:53.011Z,22.67
2018-12-27T06:26:53.039Z,23.24
2018-12-27T06:27:53.005Z,21.25
2018-12-27T06:28:53.006Z,21.35
2018-12-27T06:29:52.997Z,23.14
2018-12-27T06:30:52.995Z,22.19
2018-12-27T06:31:53.018Z,25.23
2018-12-27T06:32:52.980Z,27.22
2018-12-27T06:33:52.984Z,27.31
2018-12-27T06:34:52.974Z,27.69
2018-12-27T06:35:52.971Z,27.78
2018-12-27T06:36:52.994Z,28.74
2018-12-27T06:37:52.965Z,28.17
2018-12-27T06:38:52.962Z,28.55
2018-12-27T06:39:52.954Z,31.77
2018-12-27T06:40:52.951Z,33.57
2018-12-27T06:41:52.979Z,33.19
2018-12-27T06:42:52.945Z,33.19
2018-12-27T06:43:52.938Z,30.91
2018-12-27T06:44:52.927Z,34.71
2018-12-27T06:45:52.930Z,35.57
2018-12-27T06:46:52.952Z,37.10
2018-12-27T06:47:52.918Z,35.85
2018-12-27T06:48:52.931Z,38.69
2018-12-27T06:49:52.907Z,39.45
2018-12-27T06:50:52.909Z,38.03
2018-12-27T06:51:52.931Z,39.26
2018-12-27T06:52:52.898Z,39.36
2018-12-27T06:53:52.923Z,39.54
2018-12-27T06:54:52.895Z,39.45
2018-12-27T06:55:52.883Z,41.73
2018-12-27T06:56:52.907Z,38.69
2018-12-27T06:57:52.878Z,33.76
2018-12-27T06:58:52.871Z,37.18
2018-12-27T06:59:52.871Z,34.33
2018-12-27T07:00:52.862Z,36.70
2018-12-27T07:01:52.883Z,35.18
2018-12-27T07:02:52.853Z,33.48
2018-12-27T07:03:52.850Z,36.51
2018-12-27T07:04:52.846Z,33.57
2018-12-27T07:05:52.866Z,41.63
2018-12-27T07:06:52.837Z,42.96
2018-12-27T07:07:52.829Z,44.01
2018-12-27T07:08:52.829Z,44.01
2018-12-27T07:09:52.821Z,40.97
2018-12-27T07:10:52.853Z,41.92
2018-12-27T07:11:52.820Z,39.26
2018-12-27T07:12:52.814Z,38.98
2018-12-27T07:13:52.829Z,37.46
2018-12-27T07:14:52.802Z,40.12
2018-12-27T07:15:52.797Z,33.19
2018-12-27T07:16:52.821Z,39.45
2018-12-27T07:17:52.789Z,42.96
2018-12-27T07:18:52.783Z,38.12
2018-12-27T07:19:52.778Z,37.93
2018-12-27T07:20:52.777Z,39.36
2018-12-27T07:21:52.800Z,39.07
2018-12-27T07:22:52.766Z,44.85
2018-12-27T07:23:53.310Z,44.29
2018-12-27T07:24:52.757Z,44.48
2018-12-27T07:25:52.752Z,42.68
2018-12-27T07:26:52.789Z,42.20
2018-12-27T07:27:52.773Z,37.08
2018-12-27T07:28:52.740Z,40.59
2018-12-27T07:29:52.737Z,39.54
2018-12-27T07:30:52.729Z,38.60
2018-12-27T07:31:52.723Z,41.82
2018-12-27T07:32:52.745Z,35.85
2018-12-27T07:33:52.717Z,35.38
2018-12-27T07:34:56.476Z,35.57
2018-12-27T07:35:52.719Z,36.89
2018-12-27T07:36:52.707Z,42.39
2018-12-27T07:37:52.735Z,45.90
2018-12-27T07:38:52.696Z,44.57
2018-12-27T07:39:52.687Z,46.78
2018-12-27T07:40:52.691Z,36.22
2018-12-27T07:41:52.684Z,41.82
2018-12-27T07:42:52.709Z,42.01
2018-12-27T07:43:52.677Z,40.23
2018-12-27T07:44:52.672Z,34.82
2018-12-27T07:45:52.663Z,35.01
2018-12-27T07:46:52.665Z,37.38
2018-12-27T07:47:52.683Z,35.39
2018-12-27T07:48:52.656Z,39.37
2018-12-27T07:49:52.659Z,38.24
2018-12-27T07:50:52.649Z,49.82
2018-12-27T07:51:52.636Z,48.11
2018-12-27T07:52:52.664Z,44.50
2018-12-27T07:53:52.632Z,46.59
2018-12-27T07:54:52.629Z,45.64
2018-12-27T07:55:52.623Z,45.24
2018-12-27T07:56:52.616Z,47.53
2018-12-27T07:57:52.649Z,46.21
2018-12-27T07:58:52.615Z,46.02
2018-12-27T07:59:52.607Z,45.64
2018-12-27T08:00:52.605Z,44.50
2018-12-27T08:01:52.610Z,49.43
2018-12-27T08:02:52.624Z,51.72
2018-12-27T08:03:52.592Z,48.01
2018-12-27T08:04:52.585Z,48.58
2018-12-27T08:05:52.589Z,50.38
2018-12-27T08:06:52.603Z,48.68
2018-12-27T08:07:52.606Z,46.88
2018-12-27T08:08:52.575Z,44.40
2018-12-27T08:09:52.571Z,47.92
2018-12-27T08:10:52.567Z,51.33
2018-12-27T08:11:52.559Z,51.62
2018-12-27T08:12:52.595Z,55.32
2018-12-27T08:13:52.555Z,51.72
2018-12-27T08:14:52.551Z,50.10
2018-12-27T08:15:52.547Z,56.46
2018-12-27T08:16:52.540Z,56.27
2018-12-27T08:17:52.567Z,54.75
2018-12-27T08:18:52.535Z,62.53
2018-12-27T08:19:52.531Z,55.89
2018-12-27T08:20:52.527Z,61.58
2018-12-27T08:21:52.527Z,63.67
2018-12-27T08:22:52.841Z,61.39
2018-12-27T08:23:52.515Z,70.12
2018-12-27T08:24:52.511Z,63.01
2018-12-27T08:25:52.511Z,64.24
2018-12-27T08:26:52.506Z,66.33
2018-12-27T08:27:52.529Z,70.21
2018-12-27T08:28:52.499Z,64.14
2018-12-27T08:29:52.498Z,69.27
2018-12-27T08:30:52.490Z,67.27
2018-12-27T08:31:52.482Z,68.60
2018-12-27T08:32:52.511Z,66.42
2018-12-27T08:33:52.483Z,71.07
2018-12-27T08:34:52.499Z,73.92
2018-12-27T08:35:52.476Z,73.54
2018-12-27T08:36:52.471Z,82.65
2018-12-27T08:37:52.466Z,85.59
2018-12-27T08:38:52.490Z,86.96
2018-12-27T08:39:52.461Z,90.00
2018-12-27T08:40:52.460Z,91.04
2018-12-27T08:41:52.456Z,87.82
2018-12-27T08:42:52.454Z,93.13
2018-12-27T08:43:52.479Z,88.29
2018-12-27T08:44:52.480Z,90.66
2018-12-27T08:45:52.442Z,95.22
2018-12-27T08:46:52.458Z,97.36
2018-12-27T08:47:52.441Z,94.03
2018-12-27T08:48:52.438Z,93.94
2018-12-27T08:49:52.464Z,92.23
2018-12-27T08:50:52.440Z,90.52
2018-12-27T08:51:52.433Z,92.51
2018-12-27T08:52:52.434Z,94.13
2018-12-27T08:53:52.433Z,96.88
2018-12-27T08:54:52.463Z,94.18
2018-12-27T08:55:52.434Z,96.45
2018-12-27T08:56:52.426Z,99.99
2018-12-27T08:57:52.421Z,99.99
2018-12-27T08:58:52.420Z,99.99
2018-12-27T08:59:52.452Z,99.99
2018-12-27T09:00:52.421Z,99.99
2018-12-27T09:01:52.415Z,99.99
2018-12-27T09:02:52.415Z,99.99
2018-12-27T09:03:52.417Z,99.99
2018-12-27T09:04:52.446Z,99.99
2018-12-27T09:05:52.421Z,99.99
2018-12-27T09:06:52.422Z,99.99
2018-12-27T09:07:52.425Z,99.99
2018-12-27T09:08:52.472Z,99.99
2018-12-27T09:09:52.453Z,99.99
2018-12-27T09:10:52.423Z,99.99
2018-12-27T09:11:52.429Z,99.99
2018-12-27T09:12:52.431Z,99.99
2018-12-27T09:13:52.433Z,99.99
2018-12-27T09:14:52.468Z,99.99
2018-12-27T09:15:52.436Z,99.99
2018-12-27T09:16:52.440Z,99.99
2018-12-27T09:17:52.444Z,99.99
2018-12-27T09:18:52.448Z,99.99
2018-12-27T09:19:52.476Z,99.99
2018-12-27T09:20:52.459Z,99.99
2018-12-27T09:21:52.456Z,99.99
2018-12-27T09:22:52.461Z,99.99
2018-12-27T09:23:52.464Z,99.99
2018-12-27T09:24:52.500Z,99.99
2018-12-27T09:25:52.508Z,99.99
2018-12-27T09:26:52.475Z,99.99
2018-12-27T09:27:52.494Z,99.99
2018-12-27T09:28:52.493Z,99.99
2018-12-27T09:29:52.524Z,99.99
2018-12-27T09:30:52.535Z,99.99
2018-12-27T09:31:52.511Z,99.99
2018-12-27T09:32:52.520Z,99.99
2018-12-27T09:33:52.551Z,99.99
2018-12-27T09:34:52.535Z,99.99
2018-12-27T09:35:52.539Z,99.99
2018-12-27T09:36:52.548Z,99.99
2018-12-27T09:37:52.556Z,99.99
2018-12-27T09:38:52.591Z,99.99
2018-12-27T09:39:52.567Z,99.99
2018-12-27T09:40:52.576Z,99.99
2018-12-27T09:41:52.584Z,99.99
2018-12-27T09:42:52.591Z,99.99
2018-12-27T09:43:52.628Z,99.99
2018-12-27T09:44:52.604Z,99.99
2018-12-27T09:45:52.641Z,99.99
2018-12-27T09:46:52.622Z,99.99
2018-12-27T09:47:52.629Z,99.99
2018-12-27T09:48:52.638Z,99.99
2018-12-27T09:49:52.669Z,99.99
2018-12-27T09:50:52.648Z,99.99
2018-12-27T09:51:52.654Z,99.99
2018-12-27T09:52:52.662Z,99.99
2018-12-27T09:53:52.674Z,99.99
2018-12-27T09:54:52.718Z,99.99
2018-12-27T09:55:52.686Z,99.99
2018-12-27T09:56:52.695Z,99.99
2018-12-27T09:57:52.702Z,99.99
2018-12-27T09:58:52.711Z,99.99
2018-12-27T09:59:52.743Z,99.99
2018-12-27T10:00:52.723Z,99.99
2018-12-27T10:01:52.733Z,99.99
2018-12-27T10:02:52.748Z,99.99
2018-12-27T10:03:52.817Z,99.99
2018-12-27T10:04:52.795Z,99.99
2018-12-27T10:05:52.795Z,99.99
2018-12-27T10:06:52.776Z,99.99
2018-12-27T10:07:57.486Z,99.99
2018-12-27T10:08:52.787Z,99.99
2018-12-27T10:09:52.849Z,99.99
2018-12-27T10:10:52.810Z,99.99
2018-12-27T10:11:52.837Z,99.99
2018-12-27T10:12:52.822Z,99.99
2018-12-27T10:13:52.830Z,99.99
2018-12-27T10:14:52.838Z,99.99
2018-12-27T10:15:52.878Z,99.99
2018-12-27T10:16:52.855Z,99.99
2018-12-27T10:17:52.871Z,99.99
2018-12-27T10:18:52.878Z,99.99
2018-12-27T10:19:52.883Z,99.99
2018-12-27T10:20:52.922Z,99.99
2018-12-27T10:21:52.899Z,99.99
2018-12-27T10:22:52.927Z,99.99
2018-12-27T10:23:52.918Z,99.99
2018-12-27T10:24:52.927Z,99.99
2018-12-27T10:25:52.962Z,99.99
2018-12-27T10:26:52.963Z,99.99
2018-12-27T10:27:52.977Z,99.99
2018-12-27T10:28:52.998Z,99.99
2018-12-27T10:29:52.972Z,99.99
2018-12-27T10:30:59.615Z,99.99
2018-12-27T10:31:52.994Z,99.99
2018-12-27T10:32:52.994Z,99.99
2018-12-27T10:33:53.010Z,99.99
2018-12-27T10:34:53.019Z,99.99
2018-12-27T10:35:53.057Z,99.99
2018-12-27T10:36:53.038Z,99.99
2018-12-27T10:37:53.049Z,99.99
2018-12-27T10:38:53.871Z,99.99
2018-12-27T10:39:53.871Z,99.99
2018-12-27T10:40:53.138Z,99.99
2018-12-27T10:41:53.512Z,99.99
2018-12-27T10:42:53.107Z,99.99
2018-12-27T10:43:53.113Z,99.99
2018-12-27T10:44:53.121Z,99.99
2018-12-27T10:45:53.155Z,99.99
2018-12-27T10:46:53.234Z,99.99
2018-12-27T10:47:53.154Z,99.99
2018-12-27T10:48:53.167Z,99.99
2018-12-27T10:49:53.179Z,99.99
2018-12-27T10:50:53.217Z,99.99
2018-12-27T10:51:53.202Z,99.99
2018-12-27T10:52:53.211Z,99.99
2018-12-27T10:53:53.230Z,99.99
2018-12-27T10:54:53.237Z,99.99
2018-12-27T10:55:54.875Z,99.99
2018-12-27T10:56:53.261Z,99.99
2018-12-27T10:57:53.278Z,99.99
2018-12-27T10:58:54.469Z,99.99
2018-12-27T10:59:53.301Z,99.99
2018-12-27T11:00:53.342Z,99.99
2018-12-27T11:01:53.321Z,99.99
2018-12-27T11:02:53.339Z,99.99
2018-12-27T11:03:53.347Z,99.99
2018-12-27T11:04:53.362Z,99.99
2018-12-27T11:05:53.402Z,99.99
2018-12-27T11:06:53.389Z,99.99
2018-12-27T11:07:53.401Z,99.96
2018-12-27T11:08:53.425Z,99.10
2018-12-27T11:09:53.426Z,99.99
2018-12-27T11:10:53.877Z,98.71
2018-12-27T11:11:53.451Z,99.96
2018-12-27T11:12:53.472Z,99.15
2018-12-27T11:13:53.478Z,99.96
2018-12-27T11:14:54.283Z,98.61
2018-12-27T11:15:53.533Z,99.10
2018-12-27T11:16:53.555Z,98.81
2018-12-27T11:17:53.530Z,98.33
2018-12-27T11:18:53.550Z,98.24
2018-12-27T11:19:53.665Z,98.43
2018-12-27T11:20:53.601Z,98.52
2018-12-27T11:21:53.612Z,98.90
2018-12-27T11:22:53.602Z,99.99
2018-12-27T11:23:53.609Z,99.19
2018-12-27T11:24:53.626Z,99.99
2018-12-27T11:25:53.665Z,99.99
2018-12-27T11:26:53.678Z,99.96
2018-12-27T11:27:53.661Z,98.81
2018-12-27T11:28:53.677Z,99.00
2018-12-27T11:29:53.689Z,99.29
2018-12-27T11:30:53.727Z,99.38
2018-12-27T11:31:54.354Z,98.43
2018-12-27T11:32:53.734Z,98.66
2018-12-27T11:33:53.739Z,99.99
2018-12-27T11:34:53.750Z,99.99
2018-12-27T11:35:55.918Z,99.99
2018-12-27T11:36:53.785Z,99.99
2018-12-27T11:37:53.793Z,99.99
2018-12-27T11:38:53.805Z,99.48
2018-12-27T11:39:53.817Z,97.99
2018-12-27T11:40:53.863Z,98.75
2018-12-27T11:41:53.844Z,99.71
2018-12-27T11:42:53.857Z,99.99
2018-12-27T11:43:53.870Z,99.99
2018-12-27T11:44:53.881Z,99.99
2018-12-27T11:45:53.921Z,99.99
2018-12-27T11:46:53.901Z,99.99
2018-12-27T11:47:53.944Z,99.99
2018-12-27T11:48:53.929Z,99.99
2018-12-27T11:49:53.943Z,99.99
2018-12-27T11:50:53.952Z,99.99
2018-12-27T11:51:53.992Z,99.99
2018-12-27T11:52:53.977Z,99.99
2018-12-27T11:53:53.988Z,99.99
2018-12-27T11:54:54.001Z,99.99
2018-12-27T11:55:54.037Z,99.99
2018-12-27T11:56:54.018Z,99.99
2018-12-27T11:57:54.032Z,99.99
2018-12-27T11:58:54.045Z,99.99
2018-12-27T11:59:54.136Z,99.99
2018-12-27T12:00:54.101Z,99.99
2018-12-27T12:01:54.074Z,99.99
2018-12-27T12:02:54.121Z,99.99
2018-12-27T12:03:54.100Z,99.99
2018-12-27T12:04:54.115Z,99.99
2018-12-27T12:05:54.123Z,99.99
2018-12-27T12:06:54.160Z,99.99
2018-12-27T12:07:54.144Z,99.99
2018-12-27T12:08:54.152Z,99.99
2018-12-27T12:09:54.162Z,99.99
2018-12-27T12:10:54.172Z,99.99
2018-12-27T12:11:54.210Z,99.99
2018-12-27T12:12:54.192Z,99.99
2018-12-27T12:13:54.206Z,99.99
2018-12-27T12:14:54.209Z,99.99
2018-12-27T12:15:54.224Z,99.99
2018-12-27T12:16:54.264Z,99.99
2018-12-27T12:17:54.244Z,99.99
2018-12-27T12:18:54.256Z,99.99
2018-12-27T12:19:54.264Z,99.99
2018-12-27T12:20:54.275Z,99.99
2018-12-27T12:21:54.316Z,99.99
2018-12-27T12:22:54.300Z,99.99
2018-12-27T12:23:54.310Z,99.99
2018-12-27T12:24:54.320Z,99.99
2018-12-27T12:25:55.265Z,99.99
2018-12-27T12:26:54.368Z,99.99
2018-12-27T12:27:54.377Z,99.99
2018-12-27T12:28:54.360Z,99.99
2018-12-27T12:29:54.372Z,99.99
2018-12-27T12:30:57.389Z,99.99
2018-12-27T12:31:54.909Z,99.99
2018-12-27T12:32:54.432Z,99.99
2018-12-27T12:33:54.413Z,99.99
2018-12-27T12:34:54.425Z,99.99
2018-12-27T12:35:54.431Z,99.99
2018-12-27T12:36:54.449Z,99.99
2018-12-27T12:37:54.520Z,99.99
2018-12-27T12:38:54.464Z,99.99
2018-12-27T12:39:54.477Z,99.99
2018-12-27T12:40:54.486Z,99.99
2018-12-27T12:41:54.498Z,99.99
2018-12-27T12:42:54.533Z,99.99
2018-12-27T12:43:54.513Z,99.99
2018-12-27T12:44:54.524Z,99.99
2018-12-27T12:45:54.532Z,99.99
2018-12-27T12:46:55.383Z,99.99
2018-12-27T12:47:54.579Z,99.99
2018-12-27T12:48:54.565Z,99.99
2018-12-27T12:49:55.382Z,99.99
2018-12-27T12:50:54.584Z,99.99
2018-12-27T12:51:54.596Z,99.99
2018-12-27T12:52:54.629Z,99.99
2018-12-27T12:53:54.614Z,99.99
2018-12-27T12:54:54.625Z,99.99
2018-12-27T12:55:54.648Z,99.99
2018-12-27T12:56:54.641Z,99.99
2018-12-27T12:57:54.679Z,99.99
2018-12-27T12:58:54.657Z,99.99
2018-12-27T12:59:54.664Z,99.99
2018-12-27T13:00:54.682Z,99.99
2018-12-27T13:01:54.686Z,99.99
2018-12-27T13:02:54.722Z,99.99
2018-12-27T13:03:54.735Z,99.99
2018-12-27T13:04:54.715Z,99.99